Time;durP1;ratioP1;P1;durP2;ratioP2;P2;SDS_P1;SDS_P2;PMS_P1;PMS_P2;Temp;Humidity;BMP_temperature;BMP_pressure;BME280_temperature;BME280_humidity;BME280_pressure;Samples;Min_cycle;Max_cycle;Signal;HPM_P1;HPM_P2
2022/06/28 00:02:14;;;;;;;4.18;3.85;;;;;;;19.85;73.74;97168.59;6136650;23;20053;-80
2022/06/28 00:04:43;;;;;;;3.90;3.50;;;;;;;19.85;74.55;97173.88;6135713;23;20018;-78
2022/06/28 00:07:11;;;;;;;4.50;3.45;;;;;;;19.87;76.20;97155.94;6136081;23;20470;-78
2022/06/28 00:09:39;;;;;;;4.15;3.45;;;;;;;19.89;76.32;97157.31;6136164;23;20022;-78
2022/06/28 00:12:07;;;;;;;4.38;3.55;;;;;;;19.87;74.14;97158.59;6135726;23;20026;-79
2022/06/28 00:17:22;;;;;;;4.03;3.42;;;;;;;19.82;75.50;97171.69;6086844;23;20134;-77
2022/06/28 00:19:51;;;;;;;4.05;3.75;;;;;;;19.82;75.76;97179.66;6135575;23;20100;-78
2022/06/28 00:22:19;;;;;;;6.20;4.45;;;;;;;19.75;73.08;97169.97;6134515;23;20046;-77
2022/06/28 00:24:47;;;;;;;4.80;4.28;;;;;;;19.65;72.30;97174.16;6134151;23;20025;-78
2022/06/28 00:27:14;;;;;;;6.47;4.53;;;;;;;19.58;72.28;97178.72;6133345;23;20109;-77
2022/06/28 00:29:42;;;;;;;4.40;4.00;;;;;;;19.52;72.18;97172.50;6133124;23;20041;-78
2022/06/28 00:32:10;;;;;;;6.43;3.92;;;;;;;19.42;71.86;97172.25;6132936;23;20085;-81
2022/06/28 00:34:37;;;;;;;7.68;4.20;;;;;;;19.31;71.99;97179.91;6132757;23;20097;-77
2022/06/28 00:37:06;;;;;;;4.07;3.67;;;;;;;19.25;72.39;97194.00;6132308;23;20081;-76
2022/06/28 00:39:33;;;;;;;6.97;4.68;;;;;;;19.19;72.52;97209.94;6132122;23;20105;-78
2022/06/28 00:42:01;;;;;;;3.55;2.72;;;;;;;19.18;73.43;97211.00;6131858;23;20077;-78
2022/06/28 00:44:29;;;;;;;3.28;2.88;;;;;;;19.20;74.46;97212.38;6131723;23;20025;-80
2022/06/28 00:46:58;;;;;;;3.40;3.10;;;;;;;19.23;74.67;97217.22;6131238;23;20053;-78
2022/06/28 00:49:26;;;;;;;4.05;3.45;;;;;;;19.29;76.13;97224.28;6131340;23;20022;-78
2022/06/28 00:51:56;;;;;;;4.68;4.28;;;;;;;19.32;75.01;97221.16;6130720;23;20022;-78
2022/06/28 00:54:26;;;;;;;5.18;4.78;;;;;;;19.28;73.36;97217.34;6131725;23;20042;-78
2022/06/28 00:56:53;;;;;;;5.18;4.55;;;;;;;19.24;73.08;97215.38;6131821;23;20053;-76
2022/06/28 00:59:21;;;;;;;5.68;5.18;;;;;;;19.17;72.66;97228.69;6132464;23;20351;-78
2022/06/28 01:01:49;;;;;;;5.45;4.88;;;;;;;19.11;72.97;97224.25;6131568;23;20097;-79
2022/06/28 01:04:17;;;;;;;5.82;5.22;;;;;;;19.07;73.11;97225.75;6130483;23;20032;-77
2022/06/28 01:06:45;;;;;;;4.72;4.32;;;;;;;19.13;75.89;97230.97;6130192;23;20534;-76
2022/06/28 01:09:13;;;;;;;4.05;3.65;;;;;;;19.19;76.97;97237.19;6130554;23;20033;-78
2022/06/28 01:11:41;;;;;;;6.03;4.63;;;;;;;19.19;73.78;97226.63;6129795;23;20097;-79
2022/06/28 01:14:09;;;;;;;5.72;5.20;;;;;;;19.14;72.77;97224.66;6130781;23;20408;-77
2022/06/28 01:16:38;;;;;;;6.65;4.18;;;;;;;19.08;72.97;97222.06;6132095;23;20060;-78
2022/06/28 01:19:06;;;;;;;5.45;4.93;;;;;;;19.03;72.71;97214.00;6133259;23;20025;-80
2022/06/28 01:21:35;;;;;;;6.00;4.13;;;;;;;19.03;72.94;97214.00;6134527;23;20018;-80
2022/06/28 01:24:06;;;;;;;7.03;5.05;;;;;;;18.97;72.38;97212.25;6134975;23;20358;-82
2022/06/28 01:26:35;;;;;;;5.55;4.72;;;;;;;18.89;72.46;97219.44;6135501;23;20474;-79
2022/06/28 01:29:02;;;;;;;7.90;4.85;;;;;;;18.87;72.63;97212.72;6134387;23;20033;-80
2022/06/28 01:31:30;;;;;;;6.22;4.93;;;;;;;18.83;72.60;97215.03;6134012;23;20029;-78
2022/06/28 01:33:59;;;;;;;6.90;5.47;;;;;;;18.80;72.69;97209.34;6134180;23;20034;-79
2022/06/28 01:36:27;;;;;;;9.20;5.30;;;;;;;18.74;72.83;97205.75;6133077;23;20053;-79
2022/06/28 01:38:54;;;;;;;5.45;4.72;;;;;;;18.72;72.95;97221.00;6132692;23;20475;-79
2022/06/28 01:41:36;;;;;;;7.13;6.05;;;;;;;18.66;73.04;97213.94;6131509;23;20387;-78
2022/06/28 01:44:06;;;;;;;9.13;5.30;;;;;;;18.60;73.42;97209.53;6132527;23;20033;-77
2022/06/28 01:46:39;;;;;;;7.18;4.75;;;;;;;18.55;73.88;97209.38;6130297;23;20057;-81
2022/06/28 01:49:06;;;;;;;;;;;;;;;18.56;74.17;97211.78;6130476;23;20537;-76
2022/06/28 01:51:34;;;;;;;5.57;4.68;;;;;;;18.56;73.63;97203.06;6130076;23;20245;-78
2022/06/28 01:54:02;;;;;;;4.97;3.78;;;;;;;18.58;74.87;97209.72;6130071;23;20076;-77
2022/06/28 01:56:31;;;;;;;6.00;4.55;;;;;;;18.64;74.17;97210.72;6129907;23;20049;-76
2022/06/28 01:58:59;;;;;;;4.25;3.83;;;;;;;18.67;74.79;97223.47;6129770;23;20100;-76
2022/06/28 02:01:26;;;;;;;6.32;4.15;;;;;;;18.72;74.89;97210.44;6129524;23;20014;-80
2022/06/28 02:03:54;;;;;;;4.72;4.30;;;;;;;18.74;74.01;97221.59;6129574;23;20045;-76
2022/06/28 02:06:22;;;;;;;3.30;3.00;;;;;;;18.78;74.71;97222.78;6129415;23;20026;-76
2022/06/28 02:08:49;;;;;;;4.85;3.75;;;;;;;18.84;74.25;97226.41;6129474;23;20363;-77
2022/06/28 02:11:17;;;;;;;3.78;3.35;;;;;;;18.88;74.98;97223.09;6128946;23;20022;-76
2022/06/28 02:13:47;;;;;;;3.90;3.60;;;;;;;18.96;76.71;97229.09;6129754;23;20022;-76
2022/06/28 02:16:14;;;;;;;4.32;3.83;;;;;;;18.99;76.17;97234.78;6129950;23;20037;-77
2022/06/28 02:18:42;;;;;;;5.57;4.78;;;;;;;19.02;75.31;97246.75;6130472;23;20028;-79
2022/06/28 02:21:10;;;;;;;4.25;3.85;;;;;;;19.03;75.90;97251.81;6131761;23;20025;-77
2022/06/28 02:23:38;;;;;;;4.95;3.72;;;;;;;19.04;75.79;97253.44;6131718;23;20026;-78
2022/06/28 02:26:05;;;;;;;4.55;3.38;;;;;;;19.05;75.76;97254.25;6131066;23;20049;-79
2022/06/28 02:28:33;;;;;;;6.13;4.50;;;;;;;19.05;74.26;97243.69;6131255;23;20053;-78
2022/06/28 02:31:08;;;;;;;8.43;4.72;;;;;;;19.04;73.31;97240.22;6131638;23;20046;-76
2022/06/28 02:33:36;;;;;;;7.63;4.40;;;;;;;18.98;72.75;97241.09;6131691;23;20041;-79
2022/06/28 02:41:35;;;;;;;4.65;3.20;;;;;;;18.98;74.55;97253.50;6129985;23;20018;-77
2022/06/28 02:44:03;;;;;;;3.83;3.45;;;;;;;19.01;74.98;97258.38;6130433;23;20358;-78
2022/06/28 02:46:32;;;;;;;3.65;3.35;;;;;;;19.01;73.49;97251.22;6129777;23;20470;-81
2022/06/28 02:49:00;;;;;;;5.22;3.40;;;;;;;18.96;72.44;97244.97;6129256;23;20056;-77
2022/06/28 02:51:27;;;;;;;3.83;3.17;;;;;;;18.90;72.88;97242.19;6129082;23;20096;-77
2022/06/28 02:53:55;;;;;;;5.75;3.33;;;;;;;18.90;72.97;97250.13;6128445;23;20018;-76
2022/06/28 02:56:24;;;;;;;5.05;2.88;;;;;;;18.93;73.49;97257.63;6128706;23;20018;-79
2022/06/28 02:58:51;;;;;;;3.63;2.85;;;;;;;18.98;75.23;97256.97;6129075;23;20403;-77
2022/06/28 03:01:19;;;;;;;5.85;3.25;;;;;;;18.97;72.90;97243.97;6127314;23;20101;-76
2022/06/28 03:03:48;;;;;;;3.35;3.05;;;;;;;18.90;72.23;97249.31;6128799;23;20287;-76
2022/06/28 03:06:16;;;;;;;3.47;3.17;;;;;;;18.86;72.40;97251.56;6128123;23;20049;-76
2022/06/28 03:48:45;;;;;;;4.10;3.10;;;;;;;18.41;72.52;97233.28;6161408;23;20935;-81
2022/06/28 04:33:18;;;;;;;2.10;1.98;;;;;;;18.62;75.23;97239.19;6184207;23;20021;-79
2022/06/28 04:42:02;;;;;;;4.60;2.83;;;;;;;18.78;75.70;97243.91;6158010;23;20057;-79
2022/06/28 04:44:30;;;;;;;3.25;2.63;;;;;;;18.78;73.88;97236.00;6170593;23;20021;-80
2022/06/28 04:46:59;;;;;;;3.30;3.00;;;;;;;18.81;74.10;97238.22;6167172;23;20022;-80
2022/06/28 04:49:27;;;;;;;2.63;2.28;;;;;;;18.82;73.26;97239.03;6128941;23;20026;-80
2022/06/28 04:51:54;;;;;;;3.08;2.50;;;;;;;18.84;72.47;97248.34;6126596;23;20044;-80
2022/06/28 04:54:22;;;;;;;34.90;22.52;;;;;;;18.85;74.00;97252.63;6127457;23;20060;-80
2022/06/28 04:56:50;;;;;;;7.47;4.22;;;;;;;18.86;72.66;97267.44;6128068;23;20072;-79
2022/06/28 04:59:17;;;;;;;4.45;2.80;;;;;;;18.87;72.25;97268.25;6127960;23;20018;-79
2022/06/28 05:01:45;;;;;;;3.83;3.33;;;;;;;18.89;72.55;97267.03;6129012;23;20089;-81
2022/06/28 05:04:22;;;;;;;2.78;2.58;;;;;;;18.92;74.01;97263.13;6147313;23;20037;-81
2022/06/28 05:06:50;;;;;;;3.17;2.50;;;;;;;18.99;74.53;97260.41;6140861;23;20026;-80
2022/06/28 05:09:18;;;;;;;4.50;2.90;;;;;;;18.99;72.80;97261.22;6131832;23;20029;-80
2022/06/28 05:12:02;;;;;;;4.95;2.78;;;;;;;18.99;72.22;97265.69;6127654;23;20058;-79
2022/06/28 05:14:29;;;;;;;3.78;2.50;;;;;;;19.00;72.92;97256.72;6127816;23;20412;-78
2022/06/28 05:16:57;;;;;;;2.78;2.50;;;;;;;19.01;71.85;97256.53;6127154;23;20438;-79
2022/06/28 05:19:26;;;;;;;5.90;3.63;;;;;;;19.04;72.52;97264.00;6127209;23;20068;-79
2022/06/28 05:21:54;;;;;;;3.20;2.60;;;;;;;19.07;72.13;97258.28;6126392;23;20057;-79
2022/06/28 05:24:21;;;;;;;4.13;3.47;;;;;;;19.07;71.80;97246.91;6128353;23;20033;-80
2022/06/28 05:26:49;;;;;;;4.90;3.40;;;;;;;19.07;72.06;97246.91;6128073;23;20092;-79
2022/06/28 05:29:17;;;;;;;6.90;3.67;;;;;;;19.09;71.93;97252.78;6127230;23;20037;-79
2022/06/28 05:31:45;;;;;;;3.65;2.83;;;;;;;19.13;73.05;97256.59;6129245;23;20391;-80
2022/06/28 05:34:12;;;;;;;5.95;3.22;;;;;;;19.16;72.42;97250.06;6128324;23;20025;-79
2022/06/28 05:36:41;;;;;;;2.85;2.30;;;;;;;19.19;74.41;97246.97;6127475;23;20077;-80
2022/06/28 05:39:09;;;;;;;3.33;2.63;;;;;;;19.21;72.83;97243.09;6127454;23;20022;-80
2022/06/28 05:41:37;;;;;;;5.43;3.63;;;;;;;19.18;71.88;97238.25;6126701;23;20104;-80
2022/06/28 05:44:05;;;;;;;6.22;4.10;;;;;;;19.16;71.75;97227.06;6136227;23;20096;-81
2022/06/28 05:46:33;;;;;;;7.35;4.80;;;;;;;19.14;71.75;97214.06;6137440;23;20462;-79
2022/06/28 05:49:02;;;;;;;6.82;5.25;;;;;;;19.13;71.82;97206.34;6127340;23;20025;-80
2022/06/28 05:51:33;;;;;;;8.18;5.57;;;;;;;19.12;71.89;97212.69;6135438;23;20117;-80
2022/06/28 05:54:06;;;;;;;4.57;4.18;;;;;;;19.12;72.20;97217.97;6132423;23;20045;-80
2022/06/28 05:56:36;;;;;;;6.20;4.03;;;;;;;19.13;71.96;97230.97;6132037;23;20030;-80
2022/06/28 06:02:20;;;;;;;3.05;2.75;;;;;;;19.19;71.86;97220.53;6172086;23;20013;-80
2022/06/28 06:05:08;;;;;;;4.15;3.45;;;;;;;19.18;71.24;97226.88;6166758;23;20049;-79
2022/06/28 06:07:42;;;;;;;3.95;3.35;;;;;;;19.19;72.21;97218.69;6162549;23;20025;-78
2022/06/28 06:10:11;;;;;;;4.32;3.22;;;;;;;19.21;71.71;97227.22;6159749;23;20398;-79
2022/06/28 06:12:57;;;;;;;3.97;3.40;;;;;;;19.23;72.19;97224.34;6170446;23;20010;-79
2022/06/28 06:15:26;;;;;;;4.93;3.78;;;;;;;19.24;71.79;97224.13;6163930;23;20044;-80
2022/06/28 06:17:56;;;;;;;3.97;3.55;;;;;;;19.25;71.22;97228.38;6174117;23;20018;-80
2022/06/28 06:20:27;;;;;;;6.65;3.78;;;;;;;19.24;71.44;97229.44;6172003;23;20014;-81
2022/06/28 06:22:58;;;;;;;3.90;3.60;;;;;;;19.28;71.71;97233.22;6174069;23;20028;-81
2022/06/28 06:25:31;;;;;;;4.65;2.88;;;;;;;19.30;71.55;97225.06;6145587;23;20088;-81
2022/06/28 06:28:01;;;;;;;6.03;2.80;;;;;;;19.32;71.96;97223.81;6174663;23;20021;-83
2022/06/28 06:30:32;;;;;;;5.00;3.22;;;;;;;19.37;72.65;97225.00;6172062;23;20052;-84
2022/06/28 06:33:05;;;;;;;3.07;2.77;;;;;;;19.41;72.80;97236.75;6173758;23;20077;-84
2022/06/28 06:35:34;;;;;;;2.95;2.75;;;;;;;19.45;72.39;97232.63;6172028;23;20092;-84
2022/06/28 06:38:03;;;;;;;6.78;3.78;;;;;;;19.48;71.55;97233.00;6171628;23;20021;-83
2022/06/28 06:40:33;;;;;;;3.60;3.00;;;;;;;19.52;70.50;97231.50;6170821;23;20022;-81
2022/06/28 06:43:05;;;;;;;4.85;3.10;;;;;;;19.54;70.57;97236.59;6170759;23;20080;-81
2022/06/28 06:45:34;;;;;;;3.30;2.97;;;;;;;19.58;71.07;97232.47;6171183;23;20076;-81
2022/06/28 06:48:05;;;;;;;3.40;3.03;;;;;;;19.60;70.90;97242.84;6173142;23;20030;-80
2022/06/28 06:50:35;;;;;;;4.78;3.10;;;;;;;19.60;70.05;97235.69;6173488;23;20049;-81
2022/06/28 06:53:06;;;;;;;4.57;2.85;;;;;;;19.62;69.98;97231.00;6145897;23;20101;-80
2022/06/28 06:55:39;;;;;;;;;;;;;;;19.67;69.51;97239.06;6173232;23;20078;-81
2022/06/28 06:58:09;;;;;;;2.72;2.40;;;;;;;19.68;68.68;97240.69;6146674;23;19960;-81
2022/06/28 07:00:39;;;;;;;5.65;3.22;;;;;;;19.72;68.22;97233.94;6172516;23;20021;-81
2022/06/28 07:03:08;;;;;;;4.00;2.38;;;;;;;19.78;68.56;97226.13;6172209;23;20020;-81
2022/06/28 07:05:38;;;;;;;3.67;2.65;;;;;;;19.81;67.36;97223.03;6170872;23;20017;-81
2022/06/28 07:08:07;;;;;;;4.53;2.50;;;;;;;19.80;67.57;97224.06;6172184;23;20477;-80
2022/06/28 07:10:39;;;;;;;3.05;2.85;;;;;;;19.81;68.14;97209.78;6170929;23;20025;-81
2022/06/28 07:13:08;;;;;;;2.80;2.60;;;;;;;19.83;68.16;97205.06;6171940;23;20021;-81
2022/06/28 07:15:38;;;;;;;3.25;2.95;;;;;;;19.86;68.40;97204.63;6179708;23;20024;-81
2022/06/28 07:18:09;;;;;;;3.67;3.38;;;;;;;19.90;68.55;97208.44;6176070;23;20024;-80
2022/06/28 07:20:38;;;;;;;3.78;2.60;;;;;;;19.92;69.36;97212.47;6170691;23;20516;-81
2022/06/28 07:23:07;;;;;;;3.83;3.53;;;;;;;19.93;67.87;97221.22;6172493;23;20077;-81
2022/06/28 07:25:37;;;;;;;3.83;2.70;;;;;;;19.89;68.04;97226.16;6145811;23;20025;-81
2022/06/28 07:28:11;;;;;;;3.20;2.90;;;;;;;19.89;67.97;97228.81;6172264;23;20018;-80
2022/06/28 07:30:41;;;;;;;3.65;2.92;;;;;;;19.90;67.52;97224.34;6172804;23;20021;-81
2022/06/28 07:33:10;;;;;;;3.95;3.05;;;;;;;19.91;67.46;97221.44;6171388;23;20021;-81
2022/06/28 07:35:40;;;;;;;2.95;2.75;;;;;;;19.93;67.39;97215.94;6172364;23;20052;-81
2022/06/28 07:38:08;;;;;;;6.45;3.55;;;;;;;19.93;67.18;97210.63;6174490;23;20021;-81
2022/06/28 07:40:38;;;;;;;3.08;2.78;;;;;;;19.93;67.38;97203.50;6174163;23;20017;-80
2022/06/28 07:43:10;;;;;;;3.60;3.30;;;;;;;19.96;67.20;97207.53;6175377;23;20100;-80
2022/06/28 07:45:40;;;;;;;;;;;;;;;19.98;67.51;97199.38;6175517;23;20054;-81
2022/06/28 07:48:11;;;;;;;3.53;3.17;;;;;;;19.98;67.93;97194.88;6174264;23;19935;-80
2022/06/28 07:53:31;;;;;;;3.92;3.45;;;;;;;19.97;67.05;97187.97;6174419;23;20017;-80
2022/06/28 07:56:01;;;;;;;4.93;3.08;;;;;;;19.93;66.59;97192.91;6175134;23;20462;-80
2022/06/28 07:58:33;;;;;;;7.15;3.80;;;;;;;19.88;65.34;97184.03;6176153;23;20073;-80
2022/06/28 08:01:04;;;;;;;5.15;3.28;;;;;;;19.85;65.94;97179.19;6174932;23;20025;-81
2022/06/28 08:03:37;;;;;;;3.50;2.92;;;;;;;19.85;66.10;97176.53;6149638;23;20044;-81
2022/06/28 08:06:07;;;;;;;4.03;2.50;;;;;;;19.85;66.43;97158.81;6148670;23;20021;-80
2022/06/28 08:08:38;;;;;;;4.97;3.53;;;;;;;19.86;66.32;97159.63;6174618;23;20078;-80
2022/06/28 08:11:07;;;;;;;3.83;3.15;;;;;;;19.85;66.71;97168.59;6176655;23;20413;-80
2022/06/28 08:13:38;;;;;;;3.47;3.17;;;;;;;19.84;66.40;97167.00;6174980;23;20018;-79
2022/06/28 08:16:08;;;;;;;4.03;3.25;;;;;;;19.80;66.63;97157.88;6174726;23;20021;-80
2022/06/28 08:18:38;;;;;;;4.65;3.55;;;;;;;19.80;66.98;97155.25;6149815;23;20022;-80
2022/06/28 08:21:10;;;;;;;3.47;3.22;;;;;;;19.78;67.28;97146.72;6175841;23;20021;-80
2022/06/28 08:23:40;;;;;;;4.72;3.42;;;;;;;19.76;67.21;97134.50;6174878;23;20018;-81
2022/06/28 08:26:11;;;;;;;3.42;3.13;;;;;;;19.72;66.93;97125.44;6176992;23;20021;-83
2022/06/28 08:28:43;;;;;;;3.40;2.90;;;;;;;19.70;66.79;97114.25;6177401;23;20025;-83
2022/06/28 08:31:19;;;;;;;5.07;2.90;;;;;;;19.66;66.70;97083.94;6177105;23;20053;-83
2022/06/28 08:33:52;;;;;;;3.17;2.65;;;;;;;19.65;66.85;97090.25;6175669;23;20017;-83
2022/06/28 08:36:22;;;;;;;2.90;2.65;;;;;;;19.68;67.08;97097.75;6177109;23;20028;-83
2022/06/28 08:38:52;;;;;;;4.13;2.90;;;;;;;19.76;67.63;97118.63;6176493;23;20018;-83
2022/06/28 08:41:22;;;;;;;4.40;3.25;;;;;;;19.84;67.33;97129.94;6177268;23;20032;-83
2022/06/28 08:43:54;;;;;;;3.13;2.83;;;;;;;19.91;67.80;97157.09;6176893;23;20024;-80
2022/06/28 08:46:25;;;;;;;4.65;3.13;;;;;;;20.00;67.91;97168.16;6173435;23;20022;-81
2022/06/28 08:48:59;;;;;;;3.47;3.17;;;;;;;20.07;68.33;97161.75;6173672;23;20093;-81
2022/06/28 08:51:32;;;;;;;3.92;3.25;;;;;;;20.10;67.41;97161.28;6175157;23;20450;-81
2022/06/28 08:54:03;;;;;;;5.10;3.42;;;;;;;20.14;68.06;97162.44;6173946;23;20023;-80
2022/06/28 08:56:33;;;;;;;5.03;3.40;;;;;;;20.21;68.56;97142.97;6174306;23;20025;-80
2022/06/28 08:59:06;;;;;;;3.08;2.53;;;;;;;20.28;68.31;97131.22;6173095;23;20101;-81
2022/06/28 09:01:36;;;;;;;4.28;3.83;;;;;;;20.34;66.83;97130.31;6175325;23;20450;-80
2022/06/28 09:04:11;;;;;;;3.13;2.92;;;;;;;20.38;67.41;97130.66;6175314;23;20021;-81
2022/06/28 09:06:41;;;;;;;3.78;3.20;;;;;;;20.46;68.29;97140.88;6177130;23;20025;-80
2022/06/28 09:09:14;;;;;;;4.97;3.47;;;;;;;20.54;67.67;97153.78;6175512;23;20028;-81
2022/06/28 09:11:48;;;;;;;4.28;3.10;;;;;;;20.64;67.56;97155.06;6174813;23;20033;-80
2022/06/28 09:14:25;;;;;;;3.65;3.35;;;;;;;20.70;66.70;97151.50;6173721;23;20021;-80
2022/06/28 09:16:55;;;;;;;6.85;2.90;;;;;;;20.77;66.17;97160.13;6175579;23;20014;-81
2022/06/28 09:19:39;;;;;;;3.67;2.92;;;;;;;20.85;65.97;97162.44;6175851;23;20021;-81
2022/06/28 09:22:28;;;;;;;3.58;3.25;;;;;;;20.90;65.38;97151.94;6176125;23;20033;-80
2022/06/28 09:24:57;;;;;;;3.65;2.38;;;;;;;20.96;65.26;97142.22;6175657;23;20017;-81
2022/06/28 09:27:33;;;;;;;4.22;2.30;;;;;;;21.01;65.02;97133.56;6176625;23;20442;-80
2022/06/28 09:30:07;;;;;;;2.60;2.40;;;;;;;21.06;63.09;97136.34;6175535;23;20013;-81
2022/06/28 09:32:42;;;;;;;3.28;2.20;;;;;;;21.08;62.19;97134.22;6175704;23;20021;-81
2022/06/28 09:35:14;;;;;;;3.45;2.03;;;;;;;21.13;61.87;97132.50;6174852;23;20041;-81
2022/06/28 09:37:47;;;;;;;3.92;1.38;;;;;;;21.18;61.31;97135.22;6175869;23;20056;-80
2022/06/28 09:40:20;;;;;;;4.75;1.80;;;;;;;21.25;61.26;97136.94;6176552;23;20029;-81
2022/06/28 09:43:07;;;;;;;3.67;1.83;;;;;;;21.35;61.35;97142.44;6177178;23;20057;-80
2022/06/28 09:45:41;;;;;;;1.65;1.50;;;;;;;21.44;60.63;97148.22;6179563;23;20073;-81
2022/06/28 09:48:20;;;;;;;2.75;1.70;;;;;;;21.51;60.79;97156.84;6181656;23;20033;-81
2022/06/28 09:50:59;;;;;;;2.00;1.90;;;;;;;21.54;58.46;97161.69;6152515;23;20025;-80
2022/06/28 09:53:31;;;;;;;2.38;1.20;;;;;;;21.53;58.89;97160.06;6175734;23;20021;-80
2022/06/28 09:56:13;;;;;;;1.48;1.38;;;;;;;21.60;58.46;97158.88;6177716;23;20025;-81
2022/06/28 09:58:44;;;;;;;4.03;1.40;;;;;;;21.67;58.63;97153.41;6150473;23;20049;-81
2022/06/28 10:01:20;;;;;;;5.32;1.30;;;;;;;21.75;58.07;97154.88;6176132;23;20022;-81
2022/06/28 10:03:50;;;;;;;1.40;1.30;;;;;;;21.78;57.25;97147.22;6176314;23;20021;-80
2022/06/28 10:06:21;;;;;;;1.70;1.20;;;;;;;21.83;57.57;97145.72;6177464;23;20021;-80
2022/06/28 10:08:54;;;;;;;;;;;;;;;21.88;57.91;97137.81;6176301;23;20021;-81
2022/06/28 10:15:00;;;;;;;1.70;1.10;;;;;;;21.92;57.59;97125.66;6176937;23;19951;-81
2022/06/28 10:17:36;;;;;;;8.80;1.52;;;;;;;22.00;56.03;97131.38;6176952;23;20021;-81
2022/06/28 10:20:08;;;;;;;4.40;2.58;;;;;;;22.07;55.68;97136.53;6175122;23;20037;-80
2022/06/28 10:22:41;;;;;;;2.45;2.25;;;;;;;22.10;56.48;97136.03;6176944;23;20053;-82
2022/06/28 10:25:22;;;;;;;4.93;1.70;;;;;;;22.14;56.10;97131.84;6178016;23;20032;-80
2022/06/28 10:27:54;;;;;;;1.90;1.55;;;;;;;22.20;56.08;97130.09;6152739;23;20029;-80
2022/06/28 10:30:31;;;;;;;1.20;1.20;;;;;;;22.23;55.27;97123.50;6177232;23;20488;-80
2022/06/28 10:33:13;;;;;;;3.67;1.60;;;;;;;22.27;56.10;97121.97;6177980;23;20025;-81
2022/06/28 10:36:18;;;;;;;1.48;1.25;;;;;;;22.31;55.04;97104.50;6176664;23;20077;-80
2022/06/28 10:39:17;;;;;;;1.40;1.30;;;;;;;22.35;54.18;97101.09;6151659;23;20118;-80
2022/06/28 10:41:48;;;;;;;2.03;1.20;;;;;;;22.38;53.99;97102.47;6177145;23;20469;-81
2022/06/28 10:44:20;;;;;;;1.20;1.10;;;;;;;22.43;54.12;97097.22;6178618;23;20056;-81
2022/06/28 10:46:52;;;;;;;1.63;1.17;;;;;;;22.50;54.05;97097.03;6178105;23;20014;-81
2022/06/28 10:49:25;;;;;;;4.05;1.40;;;;;;;22.57;54.33;97103.78;6177870;23;20013;-80
2022/06/28 10:55:22;;;;;;;1.77;1.45;;;;;;;22.69;53.70;97078.94;6177693;23;20083;-80
2022/06/28 10:58:12;;;;;;;2.70;1.20;;;;;;;22.74;53.72;97073.66;6176721;23;20028;-81
2022/06/28 11:00:55;;;;;;;3.97;1.20;;;;;;;22.81;53.74;97066.31;6177880;23;20041;-80
2022/06/28 11:03:24;;;;;;;1.40;1.30;;;;;;;22.88;53.54;97069.59;6176096;23;20028;-80
2022/06/28 11:06:00;;;;;;;1.23;1.13;;;;;;;22.93;53.46;97059.00;6178157;23;20018;-80
2022/06/28 11:08:44;;;;;;;4.47;1.42;;;;;;;22.97;52.69;97048.66;6177925;23;20353;-81
2022/06/28 11:11:18;;;;;;;1.40;1.00;;;;;;;23.00;53.68;97059.66;6180360;23;20029;-81
2022/06/28 11:13:49;;;;;;;1.20;1.10;;;;;;;23.06;52.86;97057.03;6155661;23;20021;-80
2022/06/28 11:16:46;;;;;;;2.13;1.25;;;;;;;23.09;52.56;97056.53;6181982;23;20018;-81
2022/06/28 11:19:19;;;;;;;3.35;1.27;;;;;;;23.10;52.40;97058.94;6180427;23;20028;-81
2022/06/28 11:21:55;;;;;;;1.77;1.00;;;;;;;23.13;51.91;97044.34;6182110;23;20025;-80
2022/06/28 11:24:25;;;;;;;1.35;0.82;;;;;;;23.15;51.86;97044.88;6182165;23;20029;-80
2022/06/28 11:27:23;;;;;;;1.27;1.08;;;;;;;23.20;51.69;97036.97;6181217;23;20021;-80
2022/06/28 11:29:55;;;;;;;2.70;1.15;;;;;;;23.26;50.94;97040.47;6181698;23;20021;-80
2022/06/28 11:32:30;;;;;;;1.42;0.77;;;;;;;23.31;51.56;97033.34;6182280;23;20009;-80
2022/06/28 11:35:03;;;;;;;2.35;1.10;;;;;;;23.36;50.74;97022.72;6181877;23;20033;-81
2022/06/28 11:37:52;;;;;;;0.75;0.70;;;;;;;23.42;50.42;97024.38;6156755;23;20018;-80
2022/06/28 11:40:27;;;;;;;0.57;0.57;;;;;;;23.47;50.62;97017.50;6182586;23;20473;-80
2022/06/28 11:43:03;;;;;;;1.95;0.90;;;;;;;23.52;50.39;97026.31;6182154;23;20025;-80
2022/06/28 11:45:38;;;;;;;2.65;0.88;;;;;;;23.54;49.22;97016.22;6182555;23;20022;-80
2022/06/28 11:48:10;;;;;;;0.80;0.80;;;;;;;23.56;49.41;97018.63;6181840;23;20022;-80
2022/06/28 11:50:44;;;;;;;2.78;1.10;;;;;;;23.60;49.44;97025.06;6155720;23;20017;-80
2022/06/28 11:53:20;;;;;;;1.45;0.80;;;;;;;23.66;48.89;97026.72;6180254;23;20072;-81
2022/06/28 11:55:55;;;;;;;0.98;0.90;;;;;;;23.68;48.61;97016.59;6156114;23;20105;-81
2022/06/28 11:58:31;;;;;;;2.28;0.90;;;;;;;23.74;49.70;97014.75;6180290;23;20029;-80
2022/06/28 12:01:06;;;;;;;1.23;0.93;;;;;;;23.80;49.79;97008.44;6181830;23;20021;-80
2022/06/28 12:03:56;;;;;;;2.65;0.80;;;;;;;23.83;48.96;97006.09;6182196;23;20025;-81
2022/06/28 12:06:29;;;;;;;1.77;0.77;;;;;;;23.88;49.42;97004.47;6156872;23;20028;-80
2022/06/28 12:09:02;;;;;;;1.52;0.57;;;;;;;23.92;48.51;97008.25;6182564;23;20011;-80
2022/06/28 12:11:36;;;;;;;1.05;0.85;;;;;;;23.94;47.94;97011.44;6181787;23;20021;-80
2022/06/28 12:14:12;;;;;;;0.93;0.90;;;;;;;23.95;48.19;97018.41;6182039;23;20029;-80
2022/06/28 12:16:47;;;;;;;1.10;0.70;;;;;;;23.95;48.31;97008.53;6185782;23;20009;-81
2022/06/28 12:19:23;;;;;;;2.95;0.88;;;;;;;23.98;48.06;97015.22;6184256;23;20031;-80
2022/06/28 12:22:02;;;;;;;2.60;0.80;;;;;;;23.97;47.66;97008.28;6179549;23;20122;-80
2022/06/28 12:24:42;;;;;;;2.20;0.70;;;;;;;23.95;48.14;97008.53;6180304;23;20025;-80
2022/06/28 12:27:14;;;;;;;0.95;0.85;;;;;;;23.96;48.24;97014.66;6178690;23;20081;-81
2022/06/28 12:29:46;;;;;;;0.65;0.60;;;;;;;23.96;48.49;97012.00;6178704;23;20028;-80
2022/06/28 12:32:16;;;;;;;0.75;0.75;;;;;;;23.96;48.04;97012.00;6180380;23;20032;-80
2022/06/28 12:35:07;;;;;;;1.30;0.93;;;;;;;23.95;48.28;97010.41;6178598;23;20076;-81
2022/06/28 12:37:40;;;;;;;0.90;0.90;;;;;;;23.94;48.29;97004.28;6179690;23;20029;-80
2022/06/28 12:40:14;;;;;;;5.65;0.95;;;;;;;23.94;48.46;96993.63;6178749;23;20032;-81
2022/06/28 12:42:45;;;;;;;2.33;0.80;;;;;;;23.94;48.65;96987.47;6179774;23;20064;-80
2022/06/28 12:45:17;;;;;;;1.58;1.05;;;;;;;23.94;48.70;96990.97;6178579;23;20077;-80
2022/06/28 12:47:51;;;;;;;2.15;0.93;;;;;;;23.95;48.24;96994.44;6180117;23;20022;-80
2022/06/28 12:50:20;;;;;;;0.80;0.80;;;;;;;23.95;48.16;96976.56;6178912;23;20035;-80
2022/06/28 12:52:49;;;;;;;0.77;0.77;;;;;;;23.97;48.56;96977.13;6179883;23;20025;-81
2022/06/28 12:55:20;;;;;;;3.33;0.90;;;;;;;24.00;48.25;96973.91;6179559;23;20022;-80
2022/06/28 12:57:53;;;;;;;1.85;1.15;;;;;;;24.07;48.95;96965.69;6178569;23;20033;-80
2022/06/28 13:00:24;;;;;;;1.20;1.10;;;;;;;24.12;48.61;96962.25;6179497;23;20053;-80
2022/06/28 13:02:57;;;;;;;2.05;1.10;;;;;;;24.18;48.86;96951.38;6178272;23;20024;-80
2022/06/28 13:05:27;;;;;;;3.97;1.02;;;;;;;24.24;48.23;96950.31;6178863;23;20350;-80
2022/06/28 13:07:57;;;;;;;1.05;0.90;;;;;;;24.27;47.29;96944.47;6178110;23;20480;-80
2022/06/28 13:10:28;;;;;;;1.60;0.60;;;;;;;24.29;47.19;96944.19;6177825;23;20037;-80
2022/06/28 13:13:01;;;;;;;1.10;1.00;;;;;;;24.30;47.11;96942.34;6178856;23;20048;-80
2022/06/28 13:15:31;;;;;;;0.95;0.80;;;;;;;24.32;46.52;96934.91;6177690;23;20022;-81
2022/06/28 13:18:02;;;;;;;2.50;1.00;;;;;;;24.33;46.68;96931.16;6178193;23;20100;-81
2022/06/28 13:20:32;;;;;;;3.03;1.33;;;;;;;24.36;46.75;96935.94;6177683;23;20496;-80
2022/06/28 13:23:07;;;;;;;1.30;1.05;;;;;;;24.37;47.32;96929.56;6155813;23;20022;-81
2022/06/28 13:25:39;;;;;;;1.10;1.00;;;;;;;24.39;46.29;96925.56;6177409;23;20201;-81
2022/06/28 13:28:10;;;;;;;4.95;1.92;;;;;;;24.39;45.66;96930.91;6154083;23;20028;-80
2022/06/28 13:30:41;;;;;;;2.05;0.95;;;;;;;24.40;45.98;96926.38;6179551;23;20017;-80
2022/06/28 13:33:11;;;;;;;1.65;1.20;;;;;;;24.42;45.77;96927.72;6178258;23;20021;-80
2022/06/28 13:35:43;;;;;;;1.33;1.20;;;;;;;24.45;45.72;96923.75;6179341;23;20057;-81
2022/06/28 13:38:13;;;;;;;0.88;0.82;;;;;;;24.46;46.11;96912.00;6178576;23;20029;-81
2022/06/28 13:40:47;;;;;;;1.33;1.00;;;;;;;24.49;45.76;96913.34;6178963;23;20028;-81
2022/06/28 13:43:34;;;;;;;1.38;1.08;;;;;;;24.50;46.34;96915.78;6179514;23;20025;-81
2022/06/28 13:46:05;;;;;;;1.00;0.88;;;;;;;24.50;46.10;96913.09;6180368;23;20022;-80